Airfield :
LOGIN :

Register | Disclaimer

   EN    FR    IT 

 










Legend :    VFR   Marginal VFR   IFR   Intensive IFR   Very Intensive IFR
Visi :
Ceiling :
>= 8 km
>= 3000ft
5 to 8 km
1000 to 3000 ft
1500m to 5 km
500 to 1000 ft
800 to 1500m
200 to 500 ft
< 800m
< 200 ft
Symbols :   Thunderstorms  Fog  Heavy snow  Heavy precipitations  Wind > 20 kt
SIGMETs :     Misc.  Thunderstorms  Icing  Turbulence  Mountain Waves  Volcanic Ashes






- Airport Elevation : 32 ft
- IATA code : LKZ


EGUL - RAF Lakenheath

CURRENT METAR :
  • 180156Z AUTO 16007KT 9999 FEW070 11/09 A2950 RMK AO2 SLP993 T01120088 $

EXPIRED METARs :
  • 180056Z AUTO 17008KT 9999 FEW065 11/09 A2953 RMK AO2 SLP003 T01110088 $
  • 172356Z AUTO 17008KT 9999 CLR 11/09 A2955 RMK AO2 SLP010 T01050086 10123 20105 401550011 57017 $

TAF AMD TAF EGUL
Valid from the 17 at 16:00 until the 18 at 19:00 UTC


171659Z 1716/1819 18009KT 9999 SCT040 QNH2960INS
BECMG 1723/1724 18012KT 9999 BKN030 QNH2948INS
BECMG 1803/1804 18012KT 9000 -RA BKN020 QNH2950INS
TEMPO 1804/1808 8000 -RA BKN015
BECMG 1809/1810 24012G20KT 9999 NSW SCT020 BKN030 QNH2942INS TX14/1716Z TN10/1803Z LAST NO AMDS AFT 1716 NEXT 1805



MET'MAP, your aeronautical weather chart ! - Copyright ORBIFLY December 2007 - Disclaimer

ORBIFLY MET'MAP TEAM :

Programming & Development : Alexandra Zaïnal
Concept & Development : Baudouin d'Aumeries
Co-Development & Prog : Marc-Olivier Méhu
Technical & hardware support : Manuel Goepfert

Contact : metmap@orbifly.com




SOURCES & CREDITS :

   NOAA